Portada
METAR-TAF:

METAR-TAF

Aeroports :

Savonlinna, Finlàndia

latitud: 61-57N, longitud: 028-57E, altitud: 95 m

Observació

L'informe es va fer fa 31 minuts, a les 04:50 UTC
Vent 11 kt del Sud
Temperatura 0°C
Humitat 93%
Pressió 1008 hPa
Visibilitat: 7000 m
Cel cobert a una alçada de 500 ft
neu

METAR: EFSA 120450Z AUTO 19011KT 7000 -SN OVC005 M00/M01 Q1008

Hora: 07:21 (05:21 UTC)

Pronòstic

L'informe es va fer fa 3 hores i 0 minuts, a les 02:21 UTC
Pronòstic vàlid del 12 a les 03 UTC al 12 a les 12 UTC
Vent 12 kt del Sud/Sud-Oest
Visibilitat: 3000 m
Cel ennuvolat a una alçada de 700 ft
neu
Evolucionant progressivament
l' 12 a les 04 UTC al 12 a les 06 UTC
Visibilitat 10 km o més
Cel ennuvolat a una alçada de 1000 ft
Temporalment
l' 12 a les 08 UTC al 12 a les 12 UTC
Cel ennuvolat a una alçada de 1500 ft

TAF: EFSA 120221Z 1203/1212 20012KT 3000 -SN BKN007 BECMG 1204/1206 9999 NSW BKN010 TEMPO 1208/1212 BKN015

Observacions i pronòstics meteorològics de més de 4000 aeroports (METAR i TAF).

Les estacions disponibles són els punts grocs i vermells al mapa.

Posi el ratolí al punt desitjat per veure el nom de l'estació.

Feu clic per veure les observacions i els pronòstics meteorològics.

Per canviar el mapa: feu clic els botons verds amb una creu de color negre per apropar; al botó verd amb un guió per allunyar la imatge; o en les fletxes verdes per a mapes adjacents.


METAR-TAF: